sensor_id;sensor_type;location;lat;lon;timestamp;temperature;humidity
43346;DHT22;28937;51.160;4.146;2023-03-14T00:00:22;16.80;94.00
43346;DHT22;28937;51.160;4.146;2023-03-14T00:02:52;16.80;93.90
43346;DHT22;28937;51.160;4.146;2023-03-14T00:05:18;16.80;93.90
43346;DHT22;28937;51.160;4.146;2023-03-14T00:07:44;16.70;94.00
43346;DHT22;28937;51.160;4.146;2023-03-14T00:10:13;16.70;93.90
43346;DHT22;28937;51.160;4.146;2023-03-14T00:12:39;16.80;93.80
43346;DHT22;28937;51.160;4.146;2023-03-14T00:15:06;16.70;93.80
43346;DHT22;28937;51.160;4.146;2023-03-14T00:17:32;16.70;93.80
43346;DHT22;28937;51.160;4.146;2023-03-14T00:19:58;16.70;93.70
43346;DHT22;28937;51.160;4.146;2023-03-14T00:22:30;16.70;93.80
43346;DHT22;28937;51.160;4.146;2023-03-14T00:24:56;16.70;93.70
43346;DHT22;28937;51.160;4.146;2023-03-14T00:27:22;16.60;93.40
43346;DHT22;28937;51.160;4.146;2023-03-14T00:29:47;16.60;93.50
43346;DHT22;28937;51.160;4.146;2023-03-14T00:32:13;16.60;93.20
43346;DHT22;28937;51.160;4.146;2023-03-14T00:34:38;16.50;93.50
43346;DHT22;28937;51.160;4.146;2023-03-14T00:37:05;16.50;93.70
43346;DHT22;28937;51.160;4.146;2023-03-14T00:39:30;16.50;93.70
43346;DHT22;28937;51.160;4.146;2023-03-14T00:41:56;16.50;93.80
43346;DHT22;28937;51.160;4.146;2023-03-14T00:44:22;16.50;93.70
43346;DHT22;28937;51.160;4.146;2023-03-14T00:46:47;16.40;93.70
43346;DHT22;28937;51.160;4.146;2023-03-14T00:49:13;16.40;93.60
43346;DHT22;28937;51.160;4.146;2023-03-14T00:51:38;16.40;93.70
43346;DHT22;28937;51.160;4.146;2023-03-14T00:54:04;16.40;93.70
43346;DHT22;28937;51.160;4.146;2023-03-14T00:56:30;16.40;93.70
43346;DHT22;28937;51.160;4.146;2023-03-14T00:58:56;16.40;93.70
43346;DHT22;28937;51.160;4.146;2023-03-14T01:01:22;16.40;93.60
43346;DHT22;28937;51.160;4.146;2023-03-14T01:03:51;16.40;93.70
43346;DHT22;28937;51.160;4.146;2023-03-14T01:06:20;16.40;93.60
43346;DHT22;28937;51.160;4.146;2023-03-14T01:08:46;16.40;93.70
43346;DHT22;28937;51.160;4.146;2023-03-14T01:11:15;16.40;93.70
43346;DHT22;28937;51.160;4.146;2023-03-14T01:13:42;16.30;93.60
43346;DHT22;28937;51.160;4.146;2023-03-14T01:16:10;16.30;93.40
43346;DHT22;28937;51.160;4.146;2023-03-14T01:18:37;16.30;93.60
43346;DHT22;28937;51.160;4.146;2023-03-14T01:21:09;16.20;93.50
43346;DHT22;28937;51.160;4.146;2023-03-14T01:23:35;16.20;93.60
43346;DHT22;28937;51.160;4.146;2023-03-14T01:26:01;16.30;93.60
43346;DHT22;28937;51.160;4.146;2023-03-14T01:28:26;16.20;93.60
43346;DHT22;28937;51.160;4.146;2023-03-14T01:30:52;16.20;93.60
43346;DHT22;28937;51.160;4.146;2023-03-14T01:33:17;16.20;93.60
43346;DHT22;28937;51.160;4.146;2023-03-14T01:35:43;16.20;93.60
43346;DHT22;28937;51.160;4.146;2023-03-14T01:38:08;16.10;93.60
43346;DHT22;28937;51.160;4.146;2023-03-14T01:40:40;16.20;93.60
43346;DHT22;28937;51.160;4.146;2023-03-14T01:43:14;16.10;93.50
43346;DHT22;28937;51.160;4.146;2023-03-14T01:51:44;16.10;93.60
43346;DHT22;28937;51.160;4.146;2023-03-14T01:54:17;16.00;93.50
43346;DHT22;28937;51.160;4.146;2023-03-14T01:56:48;16.00;93.70
43346;DHT22;28937;51.160;4.146;2023-03-14T01:59:15;15.90;93.70
43346;DHT22;28937;51.160;4.146;2023-03-14T02:01:43;15.90;93.70
43346;DHT22;28937;51.160;4.146;2023-03-14T02:04:11;15.90;93.80
43346;DHT22;28937;51.160;4.146;2023-03-14T02:06:48;15.90;93.80
43346;DHT22;28937;51.160;4.146;2023-03-14T02:09:15;15.90;93.70
43346;DHT22;28937;51.160;4.146;2023-03-14T02:11:41;15.80;93.70
43346;DHT22;28937;51.160;4.146;2023-03-14T02:14:07;15.80;93.80
43346;DHT22;28937;51.160;4.146;2023-03-14T02:16:35;15.70;93.80
43346;DHT22;28937;51.160;4.146;2023-03-14T02:19:01;15.80;93.90
43346;DHT22;28937;51.160;4.146;2023-03-14T02:24:14;15.80;93.90
43346;DHT22;28937;51.160;4.146;2023-03-14T02:27:14;15.80;93.80
43346;DHT22;28937;51.160;4.146;2023-03-14T02:29:56;15.80;93.90
43346;DHT22;28937;51.160;4.146;2023-03-14T02:32:24;15.80;94.00
43346;DHT22;28937;51.160;4.146;2023-03-14T02:34:54;15.70;94.00
43346;DHT22;28937;51.160;4.146;2023-03-14T02:37:22;15.80;94.00
43346;DHT22;28937;51.160;4.146;2023-03-14T02:39:48;15.70;93.90
43346;DHT22;28937;51.160;4.146;2023-03-14T02:42:15;15.70;94.00
43346;DHT22;28937;51.160;4.146;2023-03-14T02:44:54;15.70;94.00
43346;DHT22;28937;51.160;4.146;2023-03-14T02:47:28;15.70;94.00
43346;DHT22;28937;51.160;4.146;2023-03-14T02:50:06;15.70;94.00
43346;DHT22;28937;51.160;4.146;2023-03-14T02:52:32;15.60;94.00
43346;DHT22;28937;51.160;4.146;2023-03-14T02:54:57;15.60;93.90
43346;DHT22;28937;51.160;4.146;2023-03-14T02:57:23;15.60;94.10
43346;DHT22;28937;51.160;4.146;2023-03-14T02:59:49;15.50;94.00
43346;DHT22;28937;51.160;4.146;2023-03-14T03:02:14;15.60;94.10
43346;DHT22;28937;51.160;4.146;2023-03-14T03:04:40;15.50;94.10
43346;DHT22;28937;51.160;4.146;2023-03-14T03:07:06;15.50;94.10
43346;DHT22;28937;51.160;4.146;2023-03-14T03:09:31;15.50;94.20
43346;DHT22;28937;51.160;4.146;2023-03-14T03:11:57;15.50;94.20
43346;DHT22;28937;51.160;4.146;2023-03-14T03:14:22;15.40;94.30
43346;DHT22;28937;51.160;4.146;2023-03-14T03:16:48;15.50;94.40
43346;DHT22;28937;51.160;4.146;2023-03-14T03:19:13;15.40;94.40
43346;DHT22;28937;51.160;4.146;2023-03-14T03:21:39;15.50;94.40
43346;DHT22;28937;51.160;4.146;2023-03-14T03:24:08;15.50;94.40
43346;DHT22;28937;51.160;4.146;2023-03-14T03:26:36;15.40;94.40
43346;DHT22;28937;51.160;4.146;2023-03-14T03:29:03;15.40;94.50
43346;DHT22;28937;51.160;4.146;2023-03-14T03:31:28;15.50;94.50
43346;DHT22;28937;51.160;4.146;2023-03-14T03:33:54;15.40;94.50
43346;DHT22;28937;51.160;4.146;2023-03-14T03:36:24;15.40;94.50
43346;DHT22;28937;51.160;4.146;2023-03-14T03:38:50;15.40;94.50
43346;DHT22;28937;51.160;4.146;2023-03-14T03:41:16;15.40;94.50
43346;DHT22;28937;51.160;4.146;2023-03-14T03:43:41;15.40;94.60
43346;DHT22;28937;51.160;4.146;2023-03-14T03:46:07;15.40;94.60
43346;DHT22;28937;51.160;4.146;2023-03-14T03:48:34;15.40;94.70
43346;DHT22;28937;51.160;4.146;2023-03-14T03:50:59;15.40;94.70
43346;DHT22;28937;51.160;4.146;2023-03-14T03:53:25;15.40;94.80
43346;DHT22;28937;51.160;4.146;2023-03-14T03:55:51;15.30;94.80
43346;DHT22;28937;51.160;4.146;2023-03-14T03:58:17;15.30;95.00
43346;DHT22;28937;51.160;4.146;2023-03-14T04:00:42;15.30;94.80
43346;DHT22;28937;51.160;4.146;2023-03-14T04:03:08;15.30;94.80
43346;DHT22;28937;51.160;4.146;2023-03-14T04:05:34;15.30;94.80
43346;DHT22;28937;51.160;4.146;2023-03-14T04:08:00;15.30;94.80
43346;DHT22;28937;51.160;4.146;2023-03-14T04:10:26;15.30;94.90
43346;DHT22;28937;51.160;4.146;2023-03-14T04:12:51;15.30;94.80
43346;DHT22;28937;51.160;4.146;2023-03-14T04:15:17;15.30;94.90
43346;DHT22;28937;51.160;4.146;2023-03-14T04:17:43;15.30;94.90
43346;DHT22;28937;51.160;4.146;2023-03-14T04:20:09;15.20;94.90
43346;DHT22;28937;51.160;4.146;2023-03-14T04:22:37;15.20;95.00
43346;DHT22;28937;51.160;4.146;2023-03-14T04:25:02;15.20;95.10
43346;DHT22;28937;51.160;4.146;2023-03-14T04:27:29;15.20;95.10
43346;DHT22;28937;51.160;4.146;2023-03-14T04:29:54;15.20;95.00
43346;DHT22;28937;51.160;4.146;2023-03-14T04:32:20;15.20;95.10
43346;DHT22;28937;51.160;4.146;2023-03-14T04:34:46;15.20;95.20
43346;DHT22;28937;51.160;4.146;2023-03-14T04:37:12;15.20;95.20
43346;DHT22;28937;51.160;4.146;2023-03-14T04:39:37;15.10;95.30
43346;DHT22;28937;51.160;4.146;2023-03-14T04:42:03;15.10;95.40
43346;DHT22;28937;51.160;4.146;2023-03-14T04:44:29;15.10;95.30
43346;DHT22;28937;51.160;4.146;2023-03-14T04:46:54;15.10;95.40
43346;DHT22;28937;51.160;4.146;2023-03-14T04:49:20;15.20;95.30
43346;DHT22;28937;51.160;4.146;2023-03-14T04:51:46;15.10;95.60
43346;DHT22;28937;51.160;4.146;2023-03-14T04:54:11;15.10;95.50
43346;DHT22;28937;51.160;4.146;2023-03-14T04:56:37;15.10;95.60
43346;DHT22;28937;51.160;4.146;2023-03-14T04:59:03;15.10;95.60
43346;DHT22;28937;51.160;4.146;2023-03-14T05:01:29;15.00;95.60
43346;DHT22;28937;51.160;4.146;2023-03-14T05:03:54;15.00;95.10
43346;DHT22;28937;51.160;4.146;2023-03-14T05:06:20;15.00;95.10
43346;DHT22;28937;51.160;4.146;2023-03-14T05:08:45;15.00;94.90
43346;DHT22;28937;51.160;4.146;2023-03-14T05:11:11;15.00;94.80
43346;DHT22;28937;51.160;4.146;2023-03-14T05:13:38;15.00;94.90
43346;DHT22;28937;51.160;4.146;2023-03-14T05:16:08;15.00;94.90
43346;DHT22;28937;51.160;4.146;2023-03-14T05:18:34;15.00;95.00
43346;DHT22;28937;51.160;4.146;2023-03-14T05:21:00;14.90;94.90
43346;DHT22;28937;51.160;4.146;2023-03-14T05:23:26;14.90;95.00
43346;DHT22;28937;51.160;4.146;2023-03-14T05:25:51;14.90;95.20
43346;DHT22;28937;51.160;4.146;2023-03-14T05:28:17;14.90;95.00
43346;DHT22;28937;51.160;4.146;2023-03-14T05:30:42;14.90;95.00
43346;DHT22;28937;51.160;4.146;2023-03-14T05:33:08;14.90;95.00
43346;DHT22;28937;51.160;4.146;2023-03-14T05:35:33;14.90;95.10
43346;DHT22;28937;51.160;4.146;2023-03-14T05:37:59;14.90;95.40
43346;DHT22;28937;51.160;4.146;2023-03-14T05:40:25;14.90;95.10
43346;DHT22;28937;51.160;4.146;2023-03-14T05:42:51;14.90;95.30
43346;DHT22;28937;51.160;4.146;2023-03-14T05:45:17;14.90;95.30
43346;DHT22;28937;51.160;4.146;2023-03-14T05:47:43;14.90;95.30
43346;DHT22;28937;51.160;4.146;2023-03-14T05:50:09;14.90;95.30
43346;DHT22;28937;51.160;4.146;2023-03-14T05:52:35;14.90;95.40
43346;DHT22;28937;51.160;4.146;2023-03-14T05:55:01;14.90;95.40
43346;DHT22;28937;51.160;4.146;2023-03-14T05:57:27;14.80;95.50
43346;DHT22;28937;51.160;4.146;2023-03-14T05:59:52;14.80;95.40
43346;DHT22;28937;51.160;4.146;2023-03-14T06:02:18;14.80;95.40
43346;DHT22;28937;51.160;4.146;2023-03-14T06:04:43;14.80;95.40
43346;DHT22;28937;51.160;4.146;2023-03-14T06:07:09;14.70;95.60
43346;DHT22;28937;51.160;4.146;2023-03-14T06:09:35;14.70;95.60
43346;DHT22;28937;51.160;4.146;2023-03-14T06:12:00;14.70;95.50
43346;DHT22;28937;51.160;4.146;2023-03-14T06:14:26;14.80;95.60
43346;DHT22;28937;51.160;4.146;2023-03-14T06:16:51;14.80;95.70
43346;DHT22;28937;51.160;4.146;2023-03-14T06:19:17;14.80;95.80
43346;DHT22;28937;51.160;4.146;2023-03-14T06:21:43;14.70;95.60
43346;DHT22;28937;51.160;4.146;2023-03-14T06:24:09;14.60;95.40
43346;DHT22;28937;51.160;4.146;2023-03-14T06:26:34;14.60;95.30
43346;DHT22;28937;51.160;4.146;2023-03-14T06:29:00;14.60;95.20
43346;DHT22;28937;51.160;4.146;2023-03-14T06:31:38;14.50;95.00
43346;DHT22;28937;51.160;4.146;2023-03-14T06:34:03;14.50;95.10
43346;DHT22;28937;51.160;4.146;2023-03-14T06:36:29;14.50;95.90
43346;DHT22;28937;51.160;4.146;2023-03-14T06:38:55;14.60;96.10
43346;DHT22;28937;51.160;4.146;2023-03-14T06:41:20;14.70;95.30
43346;DHT22;28937;51.160;4.146;2023-03-14T06:43:49;14.50;94.70
43346;DHT22;28937;51.160;4.146;2023-03-14T06:46:15;14.50;94.70
43346;DHT22;28937;51.160;4.146;2023-03-14T06:48:41;14.40;94.50
43346;DHT22;28937;51.160;4.146;2023-03-14T06:51:06;14.40;94.60
43346;DHT22;28937;51.160;4.146;2023-03-14T06:53:32;14.30;94.30
43346;DHT22;28937;51.160;4.146;2023-03-14T06:55:58;14.20;94.40
43346;DHT22;28937;51.160;4.146;2023-03-14T06:58:24;14.20;94.50
43346;DHT22;28937;51.160;4.146;2023-03-14T07:00:49;14.30;95.50
43346;DHT22;28937;51.160;4.146;2023-03-14T07:03:15;14.30;95.10
43346;DHT22;28937;51.160;4.146;2023-03-14T07:05:41;14.30;96.00
43346;DHT22;28937;51.160;4.146;2023-03-14T07:08:07;14.40;96.30
43346;DHT22;28937;51.160;4.146;2023-03-14T07:10:33;14.40;95.50
43346;DHT22;28937;51.160;4.146;2023-03-14T07:12:59;14.30;95.50
43346;DHT22;28937;51.160;4.146;2023-03-14T07:15:25;14.30;95.50
43346;DHT22;28937;51.160;4.146;2023-03-14T07:17:51;14.30;95.20
43346;DHT22;28937;51.160;4.146;2023-03-14T07:20:17;14.30;94.60
43346;DHT22;28937;51.160;4.146;2023-03-14T07:22:42;14.20;95.20
43346;DHT22;28937;51.160;4.146;2023-03-14T07:25:08;14.20;95.00
43346;DHT22;28937;51.160;4.146;2023-03-14T07:27:37;14.20;95.30
43346;DHT22;28937;51.160;4.146;2023-03-14T07:30:03;14.30;94.80
43346;DHT22;28937;51.160;4.146;2023-03-14T07:32:29;14.20;95.20
43346;DHT22;28937;51.160;4.146;2023-03-14T07:34:54;14.20;95.60
43346;DHT22;28937;51.160;4.146;2023-03-14T07:37:20;14.20;95.20
43346;DHT22;28937;51.160;4.146;2023-03-14T07:39:45;14.20;95.30
43346;DHT22;28937;51.160;4.146;2023-03-14T07:42:11;14.20;95.30
43346;DHT22;28937;51.160;4.146;2023-03-14T07:44:36;14.20;95.60
43346;DHT22;28937;51.160;4.146;2023-03-14T07:47:02;14.30;96.20
43346;DHT22;28937;51.160;4.146;2023-03-14T07:49:28;14.30;95.10
43346;DHT22;28937;51.160;4.146;2023-03-14T07:51:53;14.20;95.10
43346;DHT22;28937;51.160;4.146;2023-03-14T07:54:19;14.20;95.00
43346;DHT22;28937;51.160;4.146;2023-03-14T07:56:44;14.20;95.30
43346;DHT22;28937;51.160;4.146;2023-03-14T07:59:10;14.10;95.70
43346;DHT22;28937;51.160;4.146;2023-03-14T08:01:36;14.20;96.00
43346;DHT22;28937;51.160;4.146;2023-03-14T08:04:02;14.20;95.80
43346;DHT22;28937;51.160;4.146;2023-03-14T08:06:27;14.20;95.70
43346;DHT22;28937;51.160;4.146;2023-03-14T08:08:53;14.20;95.50
43346;DHT22;28937;51.160;4.146;2023-03-14T08:11:18;14.20;95.30
43346;DHT22;28937;51.160;4.146;2023-03-14T08:13:44;14.20;95.70
43346;DHT22;28937;51.160;4.146;2023-03-14T08:16:18;14.20;95.50
43346;DHT22;28937;51.160;4.146;2023-03-14T08:18:44;14.20;95.30
43346;DHT22;28937;51.160;4.146;2023-03-14T08:21:11;14.30;95.20
43346;DHT22;28937;51.160;4.146;2023-03-14T08:23:37;14.30;95.10
43346;DHT22;28937;51.160;4.146;2023-03-14T08:26:02;14.30;95.30
43346;DHT22;28937;51.160;4.146;2023-03-14T08:28:28;14.30;94.80
43346;DHT22;28937;51.160;4.146;2023-03-14T08:30:56;14.30;94.80
43346;DHT22;28937;51.160;4.146;2023-03-14T08:33:23;14.40;94.60
43346;DHT22;28937;51.160;4.146;2023-03-14T08:35:52;14.40;94.30
43346;DHT22;28937;51.160;4.146;2023-03-14T08:38:18;14.30;94.10
43346;DHT22;28937;51.160;4.146;2023-03-14T08:40:43;14.30;94.20
43346;DHT22;28937;51.160;4.146;2023-03-14T08:43:09;14.30;93.90
43346;DHT22;28937;51.160;4.146;2023-03-14T08:45:34;14.30;94.00
43346;DHT22;28937;51.160;4.146;2023-03-14T08:48:00;14.30;93.80
43346;DHT22;28937;51.160;4.146;2023-03-14T08:50:25;14.30;93.50
43346;DHT22;28937;51.160;4.146;2023-03-14T08:52:51;14.30;93.20
43346;DHT22;28937;51.160;4.146;2023-03-14T08:55:17;14.30;93.60
43346;DHT22;28937;51.160;4.146;2023-03-14T08:57:43;14.30;93.90
43346;DHT22;28937;51.160;4.146;2023-03-14T09:00:09;14.40;93.70
43346;DHT22;28937;51.160;4.146;2023-03-14T09:02:37;14.40;94.00
43346;DHT22;28937;51.160;4.146;2023-03-14T09:05:04;14.40;93.90
43346;DHT22;28937;51.160;4.146;2023-03-14T09:07:29;14.30;93.60
43346;DHT22;28937;51.160;4.146;2023-03-14T09:09:55;14.40;94.20
43346;DHT22;28937;51.160;4.146;2023-03-14T09:12:21;14.40;94.10
43346;DHT22;28937;51.160;4.146;2023-03-14T09:14:46;14.40;94.10
43346;DHT22;28937;51.160;4.146;2023-03-14T09:17:12;14.40;94.20
43346;DHT22;28937;51.160;4.146;2023-03-14T09:19:37;14.40;94.30
43346;DHT22;28937;51.160;4.146;2023-03-14T09:22:03;14.40;94.40
43346;DHT22;28937;51.160;4.146;2023-03-14T09:24:29;14.50;94.50
43346;DHT22;28937;51.160;4.146;2023-03-14T09:26:55;14.40;94.20
43346;DHT22;28937;51.160;4.146;2023-03-14T09:29:21;14.40;94.20
43346;DHT22;28937;51.160;4.146;2023-03-14T09:31:47;14.40;94.40
43346;DHT22;28937;51.160;4.146;2023-03-14T09:34:12;14.40;94.50
43346;DHT22;28937;51.160;4.146;2023-03-14T09:36:38;14.40;94.60
43346;DHT22;28937;51.160;4.146;2023-03-14T09:39:05;14.40;94.80
43346;DHT22;28937;51.160;4.146;2023-03-14T09:41:31;14.40;94.90
43346;DHT22;28937;51.160;4.146;2023-03-14T09:44:13;14.40;94.80
43346;DHT22;28937;51.160;4.146;2023-03-14T09:46:41;14.40;94.70
43346;DHT22;28937;51.160;4.146;2023-03-14T09:51:51;14.30;94.50
43346;DHT22;28937;51.160;4.146;2023-03-14T09:56:54;14.30;95.20
43346;DHT22;28937;51.160;4.146;2023-03-14T09:59:20;14.30;94.90
43346;DHT22;28937;51.160;4.146;2023-03-14T10:01:46;14.30;94.70
43346;DHT22;28937;51.160;4.146;2023-03-14T10:04:15;14.30;95.20
43346;DHT22;28937;51.160;4.146;2023-03-14T10:06:42;14.30;94.90
43346;DHT22;28937;51.160;4.146;2023-03-14T10:09:24;14.20;95.00
43346;DHT22;28937;51.160;4.146;2023-03-14T10:11:56;14.20;95.30
43346;DHT22;28937;51.160;4.146;2023-03-14T10:14:37;14.30;95.00
43346;DHT22;28937;51.160;4.146;2023-03-14T10:17:08;14.30;94.00
43346;DHT22;28937;51.160;4.146;2023-03-14T10:19:36;14.20;93.70
43346;DHT22;28937;51.160;4.146;2023-03-14T10:22:03;14.10;94.10
43346;DHT22;28937;51.160;4.146;2023-03-14T10:24:35;14.10;94.30
43346;DHT22;28937;51.160;4.146;2023-03-14T10:27:08;14.00;94.10
43346;DHT22;28937;51.160;4.146;2023-03-14T10:29:53;14.00;94.70
43346;DHT22;28937;51.160;4.146;2023-03-14T10:32:21;14.10;95.20
43346;DHT22;28937;51.160;4.146;2023-03-14T10:35:17;14.20;95.00
43346;DHT22;28937;51.160;4.146;2023-03-14T10:37:57;14.20;94.70
43346;DHT22;28937;51.160;4.146;2023-03-14T10:40:30;14.20;94.20
43346;DHT22;28937;51.160;4.146;2023-03-14T10:42:57;14.10;94.10
43346;DHT22;28937;51.160;4.146;2023-03-14T10:47:51;14.00;94.20
43346;DHT22;28937;51.160;4.146;2023-03-14T10:50:30;14.00;94.30
43346;DHT22;28937;51.160;4.146;2023-03-14T10:52:57;14.10;94.20
43346;DHT22;28937;51.160;4.146;2023-03-14T10:55:26;14.10;94.40
43346;DHT22;28937;51.160;4.146;2023-03-14T10:57:52;14.10;93.70
43346;DHT22;28937;51.160;4.146;2023-03-14T11:00:19;14.10;93.60
43346;DHT22;28937;51.160;4.146;2023-03-14T11:10:45;14.10;92.90
43346;DHT22;28937;51.160;4.146;2023-03-14T11:21:54;14.00;92.60
43346;DHT22;28937;51.160;4.146;2023-03-14T11:32:01;14.00;91.50
43346;DHT22;28937;51.160;4.146;2023-03-14T11:34:43;13.90;91.50
43346;DHT22;28937;51.160;4.146;2023-03-14T11:37:16;13.80;92.80
43346;DHT22;28937;51.160;4.146;2023-03-14T11:39:49;13.80;92.50
43346;DHT22;28937;51.160;4.146;2023-03-14T11:42:18;13.80;93.30
43346;DHT22;28937;51.160;4.146;2023-03-14T11:44:47;13.80;93.30
43346;DHT22;28937;51.160;4.146;2023-03-14T11:47:19;13.80;93.00
43346;DHT22;28937;51.160;4.146;2023-03-14T11:54:55;13.90;93.40
43346;DHT22;28937;51.160;4.146;2023-03-14T11:57:22;13.80;93.50
43346;DHT22;28937;51.160;4.146;2023-03-14T12:05:36;13.90;91.70
43346;DHT22;28937;51.160;4.146;2023-03-14T12:13:11;13.90;95.50
43346;DHT22;28937;51.160;4.146;2023-03-14T12:18:29;13.80;93.00
43346;DHT22;28937;51.160;4.146;2023-03-14T12:21:04;13.80;92.80
43346;DHT22;28937;51.160;4.146;2023-03-14T12:23:41;13.70;93.20
43346;DHT22;28937;51.160;4.146;2023-03-14T12:26:17;13.80;93.60
43346;DHT22;28937;51.160;4.146;2023-03-14T12:39:45;13.70;93.70
43346;DHT22;28937;51.160;4.146;2023-03-14T12:42:51;13.70;93.30
43346;DHT22;28937;51.160;4.146;2023-03-14T12:45:31;13.80;92.50
43346;DHT22;28937;51.160;4.146;2023-03-14T12:48:22;13.70;93.50
43346;DHT22;28937;51.160;4.146;2023-03-14T12:51:02;13.70;94.40
43346;DHT22;28937;51.160;4.146;2023-03-14T13:01:20;13.90;92.10
43346;DHT22;28937;51.160;4.146;2023-03-14T13:03:54;13.90;93.50
43346;DHT22;28937;51.160;4.146;2023-03-14T13:06:55;13.90;92.20
43346;DHT22;28937;51.160;4.146;2023-03-14T13:12:09;14.00;89.70
43346;DHT22;28937;51.160;4.146;2023-03-14T13:14:40;13.90;92.20
43346;DHT22;28937;51.160;4.146;2023-03-14T13:17:10;14.00;90.30
43346;DHT22;28937;51.160;4.146;2023-03-14T13:19:36;14.00;91.20
43346;DHT22;28937;51.160;4.146;2023-03-14T13:22:15;14.00;86.70
43346;DHT22;28937;51.160;4.146;2023-03-14T13:24:41;14.00;87.20
43346;DHT22;28937;51.160;4.146;2023-03-14T13:27:29;13.90;83.60
43346;DHT22;28937;51.160;4.146;2023-03-14T13:29:55;13.90;87.70
43346;DHT22;28937;51.160;4.146;2023-03-14T13:32:25;13.90;84.50
43346;DHT22;28937;51.160;4.146;2023-03-14T13:34:51;13.90;87.60
43346;DHT22;28937;51.160;4.146;2023-03-14T13:37:21;14.00;81.80
43346;DHT22;28937;51.160;4.146;2023-03-14T13:39:53;14.00;78.90
43346;DHT22;28937;51.160;4.146;2023-03-14T13:42:20;13.90;83.00
43346;DHT22;28937;51.160;4.146;2023-03-14T13:44:46;13.90;84.30
43346;DHT22;28937;51.160;4.146;2023-03-14T13:47:17;13.90;83.50
43346;DHT22;28937;51.160;4.146;2023-03-14T13:49:43;13.90;84.50
43346;DHT22;28937;51.160;4.146;2023-03-14T13:52:35;13.90;85.60
43346;DHT22;28937;51.160;4.146;2023-03-14T13:55:02;14.00;79.90
43346;DHT22;28937;51.160;4.146;2023-03-14T13:57:46;13.90;83.60
43346;DHT22;28937;51.160;4.146;2023-03-14T14:00:24;13.90;83.30
43346;DHT22;28937;51.160;4.146;2023-03-14T14:02:53;13.90;80.30
43346;DHT22;28937;51.160;4.146;2023-03-14T14:05:20;14.00;82.80
43346;DHT22;28937;51.160;4.146;2023-03-14T14:07:46;13.90;74.40
43346;DHT22;28937;51.160;4.146;2023-03-14T14:10:13;13.80;76.60
43346;DHT22;28937;51.160;4.146;2023-03-14T14:15:20;13.80;70.70
43346;DHT22;28937;51.160;4.146;2023-03-14T14:17:58;13.70;71.70
43346;DHT22;28937;51.160;4.146;2023-03-14T14:20:35;13.70;75.50
43346;DHT22;28937;51.160;4.146;2023-03-14T14:23:02;13.80;70.40
43346;DHT22;28937;51.160;4.146;2023-03-14T14:25:29;13.70;70.60
43346;DHT22;28937;51.160;4.146;2023-03-14T14:27:55;13.70;68.30
43346;DHT22;28937;51.160;4.146;2023-03-14T14:32:48;13.70;72.30
43346;DHT22;28937;51.160;4.146;2023-03-14T14:35:48;13.70;73.90
43346;DHT22;28937;51.160;4.146;2023-03-14T14:38:17;13.70;77.50
43346;DHT22;28937;51.160;4.146;2023-03-14T14:40:51;13.80;71.20
43346;DHT22;28937;51.160;4.146;2023-03-14T14:43:22;13.80;70.10
43346;DHT22;28937;51.160;4.146;2023-03-14T14:45:51;13.80;73.10
43346;DHT22;28937;51.160;4.146;2023-03-14T14:48:22;13.80;85.20
43346;DHT22;28937;51.160;4.146;2023-03-14T14:50:57;13.80;73.50
43346;DHT22;28937;51.160;4.146;2023-03-14T14:53:34;13.80;70.90
43346;DHT22;28937;51.160;4.146;2023-03-14T14:56:06;13.80;69.80
43346;DHT22;28937;51.160;4.146;2023-03-14T14:58:36;13.80;69.40
43346;DHT22;28937;51.160;4.146;2023-03-14T15:01:10;13.80;77.00
43346;DHT22;28937;51.160;4.146;2023-03-14T15:03:37;13.80;70.70
43346;DHT22;28937;51.160;4.146;2023-03-14T15:06:03;13.80;68.70
43346;DHT22;28937;51.160;4.146;2023-03-14T15:08:29;13.80;70.30
43346;DHT22;28937;51.160;4.146;2023-03-14T15:10:56;13.70;71.90
43346;DHT22;28937;51.160;4.146;2023-03-14T15:13:21;13.70;70.30
43346;DHT22;28937;51.160;4.146;2023-03-14T15:15:49;13.70;71.90
43346;DHT22;28937;51.160;4.146;2023-03-14T15:18:18;13.60;71.60
43346;DHT22;28937;51.160;4.146;2023-03-14T15:20:45;13.60;71.20
43346;DHT22;28937;51.160;4.146;2023-03-14T15:23:16;13.60;73.70
43346;DHT22;28937;51.160;4.146;2023-03-14T15:25:43;13.60;71.20
43346;DHT22;28937;51.160;4.146;2023-03-14T15:28:19;13.70;75.90
43346;DHT22;28937;51.160;4.146;2023-03-14T15:30:49;13.70;72.60
43346;DHT22;28937;51.160;4.146;2023-03-14T15:33:15;13.70;73.00
43346;DHT22;28937;51.160;4.146;2023-03-14T15:35:42;13.60;74.40
43346;DHT22;28937;51.160;4.146;2023-03-14T15:38:11;13.60;73.10
43346;DHT22;28937;51.160;4.146;2023-03-14T15:40:37;13.50;77.10
43346;DHT22;28937;51.160;4.146;2023-03-14T15:43:03;13.60;77.70
43346;DHT22;28937;51.160;4.146;2023-03-14T15:45:28;13.60;80.00
43346;DHT22;28937;51.160;4.146;2023-03-14T15:47:54;13.60;79.30
43346;DHT22;28937;51.160;4.146;2023-03-14T15:50:20;13.70;76.00
43346;DHT22;28937;51.160;4.146;2023-03-14T15:52:46;13.60;73.30
43346;DHT22;28937;51.160;4.146;2023-03-14T15:55:11;13.70;70.70
43346;DHT22;28937;51.160;4.146;2023-03-14T15:57:37;13.60;68.70
43346;DHT22;28937;51.160;4.146;2023-03-14T16:00:03;13.60;70.60
43346;DHT22;28937;51.160;4.146;2023-03-14T16:02:32;13.60;68.80
43346;DHT22;28937;51.160;4.146;2023-03-14T16:04:57;13.50;70.30
43346;DHT22;28937;51.160;4.146;2023-03-14T16:07:23;13.50;69.80
43346;DHT22;28937;51.160;4.146;2023-03-14T16:09:48;13.50;69.10
43346;DHT22;28937;51.160;4.146;2023-03-14T16:12:14;13.50;70.00
43346;DHT22;28937;51.160;4.146;2023-03-14T16:14:40;13.50;71.80
43346;DHT22;28937;51.160;4.146;2023-03-14T16:17:08;13.60;71.70
43346;DHT22;28937;51.160;4.146;2023-03-14T16:19:36;13.60;72.90
43346;DHT22;28937;51.160;4.146;2023-03-14T16:22:01;13.60;72.10
43346;DHT22;28937;51.160;4.146;2023-03-14T16:24:27;13.60;71.80
43346;DHT22;28937;51.160;4.146;2023-03-14T16:26:53;13.70;75.50
43346;DHT22;28937;51.160;4.146;2023-03-14T16:29:19;13.60;72.20
43346;DHT22;28937;51.160;4.146;2023-03-14T16:31:45;13.50;73.60
43346;DHT22;28937;51.160;4.146;2023-03-14T16:34:11;13.50;73.10
43346;DHT22;28937;51.160;4.146;2023-03-14T16:36:36;13.50;74.40
43346;DHT22;28937;51.160;4.146;2023-03-14T16:39:02;13.50;73.60
43346;DHT22;28937;51.160;4.146;2023-03-14T16:41:29;13.30;76.80
43346;DHT22;28937;51.160;4.146;2023-03-14T16:43:59;13.30;77.10
43346;DHT22;28937;51.160;4.146;2023-03-14T16:46:26;13.40;74.40
43346;DHT22;28937;51.160;4.146;2023-03-14T16:48:53;13.30;74.90
43346;DHT22;28937;51.160;4.146;2023-03-14T16:51:19;13.30;78.10
43346;DHT22;28937;51.160;4.146;2023-03-14T16:53:45;13.30;78.20
43346;DHT22;28937;51.160;4.146;2023-03-14T16:56:12;13.20;79.60
43346;DHT22;28937;51.160;4.146;2023-03-14T16:58:38;13.30;78.50
43346;DHT22;28937;51.160;4.146;2023-03-14T17:01:08;13.30;78.90